sensor_id;sensor_type;location;lat;lon;timestamp;pressure;altitude;pressure_sealevel;temperature;humidity
27864;BME280;15980;51.092;13.916;2023-03-03T00:00:42;99148.91;;;-1.45;96.47
27864;BME280;15980;51.092;13.916;2023-03-03T00:10:43;99134.69;;;-1.18;96.31
27864;BME280;15980;51.092;13.916;2023-03-03T00:20:48;99142.41;;;-1.00;96.44
27864;BME280;15980;51.092;13.916;2023-03-03T00:30:49;99157.50;;;-0.99;96.17
27864;BME280;15980;51.092;13.916;2023-03-03T00:40:49;99155.53;;;-0.82;97.87
27864;BME280;15980;51.092;13.916;2023-03-03T00:50:51;99154.59;;;-0.92;98.20
27864;BME280;15980;51.092;13.916;2023-03-03T01:00:53;99163.63;;;-0.82;98.60
27864;BME280;15980;51.092;13.916;2023-03-03T01:10:59;99160.84;;;-0.87;98.52
27864;BME280;15980;51.092;13.916;2023-03-03T01:21:02;99165.63;;;-0.67;97.97
27864;BME280;15980;51.092;13.916;2023-03-03T01:31:04;99156.91;;;-0.79;97.97
27864;BME280;15980;51.092;13.916;2023-03-03T01:41:04;99157.72;;;-0.79;98.48
27864;BME280;15980;51.092;13.916;2023-03-03T01:51:29;99151.03;;;-0.71;97.67
27864;BME280;15980;51.092;13.916;2023-03-03T02:01:31;99152.97;;;-0.67;96.73
27864;BME280;15980;51.092;13.916;2023-03-03T02:11:35;99148.59;;;-1.00;96.42
27864;BME280;15980;51.092;13.916;2023-03-03T02:21:36;99161.16;;;-1.10;96.89
27864;BME280;15980;51.092;13.916;2023-03-03T02:31:36;99133.06;;;-1.19;97.57
27864;BME280;15980;51.092;13.916;2023-03-03T02:51:40;99148.19;;;-1.13;97.77
27864;BME280;15980;51.092;13.916;2023-03-03T03:01:41;99151.47;;;-1.33;98.09
27864;BME280;15980;51.092;13.916;2023-03-03T03:11:42;99155.66;;;-1.20;97.67
27864;BME280;15980;51.092;13.916;2023-03-03T03:21:42;99170.59;;;-1.08;97.16
27864;BME280;15980;51.092;13.916;2023-03-03T03:31:42;99174.16;;;-1.29;97.94
27864;BME280;15980;51.092;13.916;2023-03-03T03:41:43;99148.28;;;-1.30;98.13
27864;BME280;15980;51.092;13.916;2023-03-03T03:51:43;99176.38;;;-1.21;98.24
27864;BME280;15980;51.092;13.916;2023-03-03T04:01:43;99165.16;;;-1.13;97.82
27864;BME280;15980;51.092;13.916;2023-03-03T04:11:43;99182.38;;;-1.14;97.19
27864;BME280;15980;51.092;13.916;2023-03-03T04:21:44;99184.66;;;-1.28;97.32
27864;BME280;15980;51.092;13.916;2023-03-03T04:31:44;99187.91;;;-1.47;98.54
27864;BME280;15980;51.092;13.916;2023-03-03T04:41:44;99200.66;;;-1.38;98.21
27864;BME280;15980;51.092;13.916;2023-03-03T04:51:44;99193.78;;;-1.50;98.57
27864;BME280;15980;51.092;13.916;2023-03-03T05:01:45;99200.53;;;-1.48;98.80
27864;BME280;15980;51.092;13.916;2023-03-03T05:11:45;99206.63;;;-1.14;98.81
27864;BME280;15980;51.092;13.916;2023-03-03T05:21:45;99185.72;;;-1.29;97.90
27864;BME280;15980;51.092;13.916;2023-03-03T05:31:46;99206.63;;;-1.14;98.34
27864;BME280;15980;51.092;13.916;2023-03-03T05:41:46;99207.88;;;-1.43;99.11
27864;BME280;15980;51.092;13.916;2023-03-03T05:51:46;99212.50;;;-1.39;99.41
27864;BME280;15980;51.092;13.916;2023-03-03T06:01:47;99214.94;;;-1.15;97.76
27864;BME280;15980;51.092;13.916;2023-03-03T06:11:47;99206.59;;;-1.36;98.24
27864;BME280;15980;51.092;13.916;2023-03-03T06:21:47;99212.69;;;-1.45;98.95
27864;BME280;15980;51.092;13.916;2023-03-03T06:31:47;99225.59;;;-1.04;98.54
27864;BME280;15980;51.092;13.916;2023-03-03T06:41:48;99244.84;;;-0.90;97.85
27864;BME280;15980;51.092;13.916;2023-03-03T06:51:48;99233.09;;;-1.06;97.57
27864;BME280;15980;51.092;13.916;2023-03-03T07:01:50;99254.59;;;-1.11;97.94
27864;BME280;15980;51.092;13.916;2023-03-03T07:11:51;99250.31;;;-0.85;97.10
27864;BME280;15980;51.092;13.916;2023-03-03T07:21:52;99263.03;;;-1.02;97.87
27864;BME280;15980;51.092;13.916;2023-03-03T07:31:54;99282.72;;;-0.80;97.95
27864;BME280;15980;51.092;13.916;2023-03-03T07:42:11;99282.88;;;-0.65;97.30
27864;BME280;15980;51.092;13.916;2023-03-03T08:02:46;99291.41;;;-0.73;97.82
27864;BME280;15980;51.092;13.916;2023-03-03T08:12:53;99293.00;;;-0.77;97.28
27864;BME280;15980;51.092;13.916;2023-03-03T08:22:54;99280.03;;;-0.53;97.60
27864;BME280;15980;51.092;13.916;2023-03-03T08:32:54;99283.91;;;-0.17;95.46
27864;BME280;15980;51.092;13.916;2023-03-03T08:42:55;99297.81;;;-0.30;95.37
27864;BME280;15980;51.092;13.916;2023-03-03T08:52:55;99305.44;;;-0.22;94.15
27864;BME280;15980;51.092;13.916;2023-03-03T09:02:56;99305.63;;;0.30;93.48
27864;BME280;15980;51.092;13.916;2023-03-03T09:12:59;99296.72;;;0.30;93.96
27864;BME280;15980;51.092;13.916;2023-03-03T09:33:30;99334.13;;;-0.11;91.31
27864;BME280;15980;51.092;13.916;2023-03-03T10:35:29;99357.16;;;0.29;91.68
27864;BME280;15980;51.092;13.916;2023-03-03T11:36:57;99339.91;;;0.67;88.67
27864;BME280;15980;51.092;13.916;2023-03-03T12:17:57;99323.09;;;0.97;87.22
27864;BME280;15980;51.092;13.916;2023-03-03T12:48:47;99302.81;;;0.52;88.06
27864;BME280;15980;51.092;13.916;2023-03-03T12:58:56;99293.44;;;0.65;88.07
27864;BME280;15980;51.092;13.916;2023-03-03T13:09:12;99297.75;;;0.61;87.62
27864;BME280;15980;51.092;13.916;2023-03-03T13:19:40;99297.44;;;0.57;88.62
27864;BME280;15980;51.092;13.916;2023-03-03T13:29:43;99284.75;;;1.05;88.60
27864;BME280;15980;51.092;13.916;2023-03-03T13:39:57;99274.53;;;1.17;86.36
27864;BME280;15980;51.092;13.916;2023-03-03T13:50:21;99261.44;;;0.89;87.24
27864;BME280;15980;51.092;13.916;2023-03-03T14:11:09;99248.53;;;1.01;87.31
27864;BME280;15980;51.092;13.916;2023-03-03T14:21:14;99245.63;;;0.60;87.93
27864;BME280;15980;51.092;13.916;2023-03-03T14:31:23;99243.75;;;0.61;88.25
27864;BME280;15980;51.092;13.916;2023-03-03T14:41:39;99240.28;;;0.76;87.85
27864;BME280;15980;51.092;13.916;2023-03-03T14:51:47;99236.09;;;1.00;86.70
27864;BME280;15980;51.092;13.916;2023-03-03T15:01:56;99235.25;;;0.94;86.64
27864;BME280;15980;51.092;13.916;2023-03-03T15:11:57;99236.59;;;0.87;85.80
27864;BME280;15980;51.092;13.916;2023-03-03T15:22:05;99235.16;;;0.74;87.19
27864;BME280;15980;51.092;13.916;2023-03-03T15:32:18;99226.72;;;0.60;87.69
27864;BME280;15980;51.092;13.916;2023-03-03T15:42:32;99225.63;;;0.56;87.22
27864;BME280;15980;51.092;13.916;2023-03-03T17:04:00;99217.72;;;0.03;91.30
27864;BME280;15980;51.092;13.916;2023-03-03T17:35:22;99234.75;;;0.08;91.43
27864;BME280;15980;51.092;13.916;2023-03-03T17:45:26;99228.53;;;0.03;91.53
27864;BME280;15980;51.092;13.916;2023-03-03T18:25:58;99232.38;;;0.17;90.34
27864;BME280;15980;51.092;13.916;2023-03-03T18:36:14;99242.66;;;0.20;91.62
27864;BME280;15980;51.092;13.916;2023-03-03T19:16:53;99244.41;;;0.41;90.26
27864;BME280;15980;51.092;13.916;2023-03-03T19:27:04;99236.06;;;0.43;90.97
27864;BME280;15980;51.092;13.916;2023-03-03T19:37:25;99236.84;;;0.38;90.74
27864;BME280;15980;51.092;13.916;2023-03-03T19:58:03;99235.56;;;0.46;91.13
27864;BME280;15980;51.092;13.916;2023-03-03T20:08:14;99232.34;;;0.49;91.72
27864;BME280;15980;51.092;13.916;2023-03-03T20:39:20;99215.88;;;0.50;92.34
27864;BME280;15980;51.092;13.916;2023-03-03T21:00:05;99209.13;;;0.53;92.66
27864;BME280;15980;51.092;13.916;2023-03-03T21:10:15;99202.16;;;0.62;91.99
27864;BME280;15980;51.092;13.916;2023-03-03T21:20:21;99192.19;;;0.68;91.72
27864;BME280;15980;51.092;13.916;2023-03-03T21:30:22;99181.38;;;0.68;92.10
27864;BME280;15980;51.092;13.916;2023-03-03T21:40:28;99176.25;;;0.71;92.16
27864;BME280;15980;51.092;13.916;2023-03-03T21:50:29;99175.44;;;0.66;91.65
27864;BME280;15980;51.092;13.916;2023-03-03T22:00:29;99165.72;;;0.70;92.48
27864;BME280;15980;51.092;13.916;2023-03-03T22:10:29;99154.88;;;0.54;92.93
27864;BME280;15980;51.092;13.916;2023-03-03T22:20:30;99147.34;;;0.67;92.40
27864;BME280;15980;51.092;13.916;2023-03-03T22:30:30;99150.28;;;0.50;92.15
27864;BME280;15980;51.092;13.916;2023-03-03T22:40:30;99139.50;;;0.60;92.68
27864;BME280;15980;51.092;13.916;2023-03-03T22:50:31;99130.59;;;0.59;92.24
27864;BME280;15980;51.092;13.916;2023-03-03T23:00:32;99116.84;;;0.71;91.53
27864;BME280;15980;51.092;13.916;2023-03-03T23:10:33;99125.75;;;0.61;91.21
27864;BME280;15980;51.092;13.916;2023-03-03T23:20:34;99109.50;;;0.51;90.97
27864;BME280;15980;51.092;13.916;2023-03-03T23:30:34;99101.16;;;0.63;90.59
27864;BME280;15980;51.092;13.916;2023-03-03T23:40:35;99081.47;;;0.68;90.32
27864;BME280;15980;51.092;13.916;2023-03-03T23:50:35;99091.72;;;0.60;89.49
